San Lorenzo, California
Current Conditions -  °F | °C
As of 7:54 PM on Wednesday 26 Nov 2014 (Local Time) from KHWD Reporting Station
Clear Clear  
Wind Chill: 55°   Ceiling: Unl
Heat Index: 55°   Visibility: 9mi
Dew Point: 48°   Wind: 6mph
Humidity: 77%   Direction: 50°NE
Pressure: 30.21"   Gusts: NA
Location:  37.68°N, 122.12°W
Report Text: KHWD 270354Z AUTO 05005KT 9SM CLR 13/09 A3021 RMK AO2 SLP239 T01280089
Loading
Personal Weather Stations






























Interactive Weather Map New forecast layout! Learn more

10-Day Weather Forecast

Advertisements
Track Severe Weather on mobile